sensor_id;sensor_type;location;lat;lon;timestamp;pressure;altitude;pressure_sealevel;temperature;humidity
21779;BME280;11050;52.222;20.916;2023-12-22T00:00:27;96462.59;;;5.71;100.00
21779;BME280;11050;52.222;20.916;2023-12-22T00:02:53;96472.69;;;5.79;100.00
21779;BME280;11050;52.222;20.916;2023-12-22T00:05:18;96462.59;;;5.71;100.00
21779;BME280;11050;52.222;20.916;2023-12-22T00:07:44;96469.47;;;5.68;100.00
21779;BME280;11050;52.222;20.916;2023-12-22T00:10:10;96498.94;;;5.66;100.00
21779;BME280;11050;52.222;20.916;2023-12-22T00:12:35;96464.97;;;5.64;100.00
21779;BME280;11050;52.222;20.916;2023-12-22T00:15:04;96493.50;;;5.66;100.00
21779;BME280;11050;52.222;20.916;2023-12-22T00:17:30;96479.88;;;5.66;100.00
21779;BME280;11050;52.222;20.916;2023-12-22T00:19:56;96474.59;;;5.61;100.00
21779;BME280;11050;52.222;20.916;2023-12-22T00:22:24;96462.22;;;5.55;100.00
21779;BME280;11050;52.222;20.916;2023-12-22T00:24:53;96467.19;;;5.53;100.00
21779;BME280;11050;52.222;20.916;2023-12-22T00:27:19;96477.63;;;5.60;100.00
21779;BME280;11050;52.222;20.916;2023-12-22T00:29:44;96483.06;;;5.60;100.00
21779;BME280;11050;52.222;20.916;2023-12-22T00:32:10;96490.09;;;5.52;100.00
21779;BME280;11050;52.222;20.916;2023-12-22T00:34:36;96523.22;;;5.54;100.00
21779;BME280;11050;52.222;20.916;2023-12-22T00:37:02;96506.72;;;5.51;100.00
21779;BME280;11050;52.222;20.916;2023-12-22T00:39:30;96489.09;;;5.48;100.00
21779;BME280;11050;52.222;20.916;2023-12-22T00:41:56;96515.66;;;5.43;100.00
21779;BME280;11050;52.222;20.916;2023-12-22T00:44:22;96517.72;;;5.37;100.00
21779;BME280;11050;52.222;20.916;2023-12-22T00:46:48;96523.16;;;5.37;100.00
21779;BME280;11050;52.222;20.916;2023-12-22T00:49:14;96510.66;;;5.36;100.00
21779;BME280;11050;52.222;20.916;2023-12-22T00:51:40;96521.53;;;5.36;100.00
21779;BME280;11050;52.222;20.916;2023-12-22T00:54:05;96515.47;;;5.39;100.00
21779;BME280;11050;52.222;20.916;2023-12-22T00:56:31;96520.06;;;5.30;100.00
21779;BME280;11050;52.222;20.916;2023-12-22T00:58:57;96515.41;;;5.22;100.00
21779;BME280;11050;52.222;20.916;2023-12-22T01:01:22;96493.16;;;5.29;100.00
21779;BME280;11050;52.222;20.916;2023-12-22T01:03:48;96509.69;;;5.32;100.00
21779;BME280;11050;52.222;20.916;2023-12-22T01:06:14;96511.59;;;5.32;100.00
21779;BME280;11050;52.222;20.916;2023-12-22T01:08:40;96512.03;;;5.25;100.00
21779;BME280;11050;52.222;20.916;2023-12-22T01:11:06;96518.59;;;5.24;100.00
21779;BME280;11050;52.222;20.916;2023-12-22T01:13:31;96511.19;;;5.16;100.00
21779;BME280;11050;52.222;20.916;2023-12-22T01:15:57;96520.28;;;5.12;100.00
21779;BME280;11050;52.222;20.916;2023-12-22T01:18:22;96516.25;;;5.09;100.00
21779;BME280;11050;52.222;20.916;2023-12-22T01:20:50;96495.63;;;5.08;100.00
21779;BME280;11050;52.222;20.916;2023-12-22T01:23:16;96493.66;;;5.00;100.00
21779;BME280;11050;52.222;20.916;2023-12-22T01:25:41;96488.69;;;5.02;100.00
21779;BME280;11050;52.222;20.916;2023-12-22T01:28:07;96485.84;;;5.07;100.00
21779;BME280;11050;52.222;20.916;2023-12-22T01:30:33;96490.31;;;5.03;100.00
21779;BME280;11050;52.222;20.916;2023-12-22T01:32:58;96490.19;;;5.08;100.00
21779;BME280;11050;52.222;20.916;2023-12-22T01:35:24;96493.06;;;5.03;100.00
21779;BME280;11050;52.222;20.916;2023-12-22T01:37:50;96503.44;;;5.01;100.00
21779;BME280;11050;52.222;20.916;2023-12-22T01:40:16;96491.09;;;5.04;100.00
21779;BME280;11050;52.222;20.916;2023-12-22T01:42:42;96480.53;;;5.02;100.00
21779;BME280;11050;52.222;20.916;2023-12-22T01:45:08;96487.59;;;5.03;100.00
21779;BME280;11050;52.222;20.916;2023-12-22T01:47:35;96477.25;;;5.14;100.00
21779;BME280;11050;52.222;20.916;2023-12-22T01:50:02;96484.91;;;5.12;100.00
21779;BME280;11050;52.222;20.916;2023-12-22T01:52:28;96480.78;;;5.14;100.00
21779;BME280;11050;52.222;20.916;2023-12-22T01:54:54;96512.94;;;5.12;100.00
21779;BME280;11050;52.222;20.916;2023-12-22T01:57:21;96483.81;;;5.13;100.00
21779;BME280;11050;52.222;20.916;2023-12-22T01:59:49;96498.09;;;5.18;100.00
21779;BME280;11050;52.222;20.916;2023-12-22T02:02:15;96523.59;;;5.31;100.00
21779;BME280;11050;52.222;20.916;2023-12-22T02:04:42;96498.28;;;5.30;100.00
21779;BME280;11050;52.222;20.916;2023-12-22T02:07:09;96512.28;;;5.37;100.00
21779;BME280;11050;52.222;20.916;2023-12-22T02:09:36;96522.34;;;5.37;100.00
21779;BME280;11050;52.222;20.916;2023-12-22T02:12:03;96522.19;;;5.33;100.00
21779;BME280;11050;52.222;20.916;2023-12-22T02:14:29;96538.09;;;5.48;100.00
21779;BME280;11050;52.222;20.916;2023-12-22T02:22:06;96502.88;;;5.52;100.00
21779;BME280;11050;52.222;20.916;2023-12-22T02:24:33;96510.59;;;5.58;100.00
21779;BME280;11050;52.222;20.916;2023-12-22T02:33:05;96484.94;;;5.51;100.00
21779;BME280;11050;52.222;20.916;2023-12-22T02:35:36;96488.31;;;5.56;100.00
21779;BME280;11050;52.222;20.916;2023-12-22T02:38:04;96506.22;;;5.49;100.00
21779;BME280;11050;52.222;20.916;2023-12-22T02:40:31;96502.41;;;5.50;100.00
21779;BME280;11050;52.222;20.916;2023-12-22T02:42:58;96501.56;;;5.41;100.00
21779;BME280;11050;52.222;20.916;2023-12-22T02:45:24;96491.03;;;5.48;100.00
21779;BME280;11050;52.222;20.916;2023-12-22T02:47:50;96504.78;;;5.43;100.00
21779;BME280;11050;52.222;20.916;2023-12-22T02:50:16;96489.41;;;5.47;100.00
21779;BME280;11050;52.222;20.916;2023-12-22T02:52:43;96517.44;;;5.47;100.00
21779;BME280;11050;52.222;20.916;2023-12-22T02:55:09;96512.53;;;5.58;100.00
21779;BME280;11050;52.222;20.916;2023-12-22T02:57:35;96495.38;;;5.57;100.00
21779;BME280;11050;52.222;20.916;2023-12-22T03:00:01;96530.94;;;5.61;100.00
21779;BME280;11050;52.222;20.916;2023-12-22T03:02:27;96492.50;;;5.54;100.00
21779;BME280;11050;52.222;20.916;2023-12-22T03:04:52;96498.59;;;5.59;100.00
21779;BME280;11050;52.222;20.916;2023-12-22T03:07:18;96511.63;;;5.71;100.00
21779;BME280;11050;52.222;20.916;2023-12-22T03:09:44;96542.00;;;5.64;100.00
21779;BME280;11050;52.222;20.916;2023-12-22T03:12:10;96500.50;;;5.59;100.00
21779;BME280;11050;52.222;20.916;2023-12-22T03:14:36;96517.09;;;5.40;100.00
21779;BME280;11050;52.222;20.916;2023-12-22T03:17:05;96503.47;;;5.10;100.00
21779;BME280;11050;52.222;20.916;2023-12-22T03:19:32;96496.13;;;5.10;100.00
21779;BME280;11050;52.222;20.916;2023-12-22T03:21:58;96490.81;;;5.05;100.00
21779;BME280;11050;52.222;20.916;2023-12-22T03:24:25;96488.84;;;4.97;100.00
21779;BME280;11050;52.222;20.916;2023-12-22T03:26:52;96467.91;;;4.98;100.00
21779;BME280;11050;52.222;20.916;2023-12-22T03:29:18;96525.31;;;4.96;100.00
21779;BME280;11050;52.222;20.916;2023-12-22T03:31:45;96463.69;;;4.92;100.00
21779;BME280;11050;52.222;20.916;2023-12-22T03:34:11;96481.88;;;4.82;100.00
21779;BME280;11050;52.222;20.916;2023-12-22T03:36:37;96487.69;;;4.90;100.00
21779;BME280;11050;52.222;20.916;2023-12-22T03:39:03;96484.50;;;4.96;100.00
21779;BME280;11050;52.222;20.916;2023-12-22T03:41:30;96492.06;;;4.99;100.00
21779;BME280;11050;52.222;20.916;2023-12-22T03:43:58;96500.66;;;4.93;100.00
21779;BME280;11050;52.222;20.916;2023-12-22T03:46:24;96496.19;;;4.97;100.00
21779;BME280;11050;52.222;20.916;2023-12-22T03:48:51;96495.66;;;4.86;100.00
21779;BME280;11050;52.222;20.916;2023-12-22T03:51:16;96494.22;;;4.89;100.00
21779;BME280;11050;52.222;20.916;2023-12-22T03:53:42;96488.91;;;4.83;100.00
21779;BME280;11050;52.222;20.916;2023-12-22T03:56:09;96496.91;;;4.80;100.00
21779;BME280;11050;52.222;20.916;2023-12-22T03:58:38;96490.22;;;4.86;100.00
21779;BME280;11050;52.222;20.916;2023-12-22T04:01:04;96487.78;;;4.84;100.00
21779;BME280;11050;52.222;20.916;2023-12-22T04:03:30;96481.78;;;4.96;100.00
21779;BME280;11050;52.222;20.916;2023-12-22T04:05:55;96496.53;;;5.04;100.00
21779;BME280;11050;52.222;20.916;2023-12-22T04:08:21;96493.16;;;4.98;100.00
21779;BME280;11050;52.222;20.916;2023-12-22T04:10:47;96480.69;;;4.97;100.00
21779;BME280;11050;52.222;20.916;2023-12-22T04:13:14;96480.06;;;5.00;100.00
21779;BME280;11050;52.222;20.916;2023-12-22T04:15:40;96489.75;;;4.93;100.00
21779;BME280;11050;52.222;20.916;2023-12-22T04:18:05;96480.00;;;4.92;100.00
21779;BME280;11050;52.222;20.916;2023-12-22T04:20:31;96480.50;;;4.94;100.00
21779;BME280;11050;52.222;20.916;2023-12-22T04:22:57;96504.50;;;4.92;100.00
21779;BME280;11050;52.222;20.916;2023-12-22T04:25:23;96501.13;;;4.95;100.00
21779;BME280;11050;52.222;20.916;2023-12-22T04:27:50;96480.50;;;4.94;100.00
21779;BME280;11050;52.222;20.916;2023-12-22T04:30:16;96494.53;;;4.87;100.00
21779;BME280;11050;52.222;20.916;2023-12-22T04:32:42;96497.75;;;4.89;100.00
21779;BME280;11050;52.222;20.916;2023-12-22T04:35:08;96512.34;;;4.93;100.00
21779;BME280;11050;52.222;20.916;2023-12-22T04:37:33;96500.03;;;4.96;100.00
21779;BME280;11050;52.222;20.916;2023-12-22T04:39:59;96489.75;;;4.93;100.00
21779;BME280;11050;52.222;20.916;2023-12-22T04:42:25;96508.97;;;4.96;100.00
21779;BME280;11050;52.222;20.916;2023-12-22T04:44:54;96495.88;;;4.98;100.00
21779;BME280;11050;52.222;20.916;2023-12-22T04:47:20;96505.47;;;4.96;100.00
21779;BME280;11050;52.222;20.916;2023-12-22T04:49:46;96529.97;;;4.96;100.00
21779;BME280;11050;52.222;20.916;2023-12-22T04:52:12;96497.06;;;4.83;100.00
21779;BME280;11050;52.222;20.916;2023-12-22T04:54:38;96510.34;;;4.85;100.00
21779;BME280;11050;52.222;20.916;2023-12-22T04:57:04;96513.13;;;4.71;100.00
21779;BME280;11050;52.222;20.916;2023-12-22T04:59:30;96508.31;;;4.68;100.00
21779;BME280;11050;52.222;20.916;2023-12-22T05:01:55;96532.28;;;4.66;100.00
21779;BME280;11050;52.222;20.916;2023-12-22T05:04:21;96524.13;;;4.66;100.00
21779;BME280;11050;52.222;20.916;2023-12-22T05:06:48;96512.44;;;4.66;100.00
21779;BME280;11050;52.222;20.916;2023-12-22T05:09:15;96518.34;;;4.59;100.00
21779;BME280;11050;52.222;20.916;2023-12-22T05:11:41;96517.53;;;4.59;100.00
21779;BME280;11050;52.222;20.916;2023-12-22T05:14:06;96557.97;;;4.60;100.00
21779;BME280;11050;52.222;20.916;2023-12-22T05:16:32;96527.78;;;4.62;100.00
21779;BME280;11050;52.222;20.916;2023-12-22T05:18:58;96530.94;;;4.55;100.00
21779;BME280;11050;52.222;20.916;2023-12-22T05:21:24;96537.22;;;4.64;100.00
21779;BME280;11050;52.222;20.916;2023-12-22T05:23:50;96526.53;;;4.68;100.00
21779;BME280;11050;52.222;20.916;2023-12-22T05:26:20;96545.72;;;4.63;100.00
21779;BME280;11050;52.222;20.916;2023-12-22T05:28:46;96546.38;;;4.68;100.00
21779;BME280;11050;52.222;20.916;2023-12-22T05:31:12;96551.31;;;4.66;100.00
21779;BME280;11050;52.222;20.916;2023-12-22T05:33:38;96559.78;;;4.65;100.00
21779;BME280;11050;52.222;20.916;2023-12-22T05:36:04;96532.78;;;4.68;100.00
21779;BME280;11050;52.222;20.916;2023-12-22T05:38:30;96536.63;;;4.67;100.00
21779;BME280;11050;52.222;20.916;2023-12-22T05:40:57;96543.84;;;4.50;100.00
21779;BME280;11050;52.222;20.916;2023-12-22T05:43:23;96571.38;;;4.57;100.00
21779;BME280;11050;52.222;20.916;2023-12-22T05:45:48;96544.72;;;4.59;100.00
21779;BME280;11050;52.222;20.916;2023-12-22T05:48:14;96556.31;;;4.51;100.00
21779;BME280;11050;52.222;20.916;2023-12-22T05:50:40;96555.03;;;4.48;100.00
21779;BME280;11050;52.222;20.916;2023-12-22T05:53:05;96551.13;;;4.41;100.00
21779;BME280;11050;52.222;20.916;2023-12-22T05:55:31;96547.09;;;4.38;100.00
21779;BME280;11050;52.222;20.916;2023-12-22T05:57:57;96546.53;;;4.28;100.00
21779;BME280;11050;52.222;20.916;2023-12-22T06:00:23;96556.06;;;4.39;100.00
21779;BME280;11050;52.222;20.916;2023-12-22T06:02:48;96565.09;;;4.48;100.00
21779;BME280;11050;52.222;20.916;2023-12-22T06:05:14;96560.06;;;4.41;100.00
21779;BME280;11050;52.222;20.916;2023-12-22T06:07:40;96578.97;;;4.46;100.00
21779;BME280;11050;52.222;20.916;2023-12-22T06:10:06;96555.31;;;4.47;100.00
21779;BME280;11050;52.222;20.916;2023-12-22T06:12:35;96580.88;;;4.46;100.00
21779;BME280;11050;52.222;20.916;2023-12-22T06:15:01;96582.97;;;4.49;100.00
21779;BME280;11050;52.222;20.916;2023-12-22T06:17:26;96558.84;;;4.34;100.00
21779;BME280;11050;52.222;20.916;2023-12-22T06:19:52;96570.16;;;4.63;100.00
21779;BME280;11050;52.222;20.916;2023-12-22T06:22:18;96572.16;;;4.71;100.00
21779;BME280;11050;52.222;20.916;2023-12-22T06:24:43;96563.00;;;4.67;100.00
21779;BME280;11050;52.222;20.916;2023-12-22T06:27:10;96562.56;;;4.73;100.00
21779;BME280;11050;52.222;20.916;2023-12-22T06:29:36;96613.94;;;4.75;99.65
21779;BME280;11050;52.222;20.916;2023-12-22T06:32:01;96596.56;;;4.84;97.46
21779;BME280;11050;52.222;20.916;2023-12-22T06:34:27;96603.63;;;4.86;95.20
21779;BME280;11050;52.222;20.916;2023-12-22T06:36:53;96619.94;;;4.86;94.66
21779;BME280;11050;52.222;20.916;2023-12-22T06:39:18;96630.78;;;4.99;91.64
21779;BME280;11050;52.222;20.916;2023-12-22T06:41:45;96644.50;;;4.94;87.93
21779;BME280;11050;52.222;20.916;2023-12-22T06:44:11;96611.97;;;5.11;84.79
21779;BME280;11050;52.222;20.916;2023-12-22T06:46:36;96620.59;;;5.05;85.00
21779;BME280;11050;52.222;20.916;2023-12-22T06:49:02;96641.19;;;5.19;77.45
21779;BME280;11050;52.222;20.916;2023-12-22T06:51:30;96613.66;;;5.21;77.73
21779;BME280;11050;52.222;20.916;2023-12-22T06:53:56;96595.00;;;5.28;74.26
21779;BME280;11050;52.222;20.916;2023-12-22T06:56:28;96617.69;;;5.23;73.08
21779;BME280;11050;52.222;20.916;2023-12-22T06:58:56;96627.66;;;5.28;72.28
21779;BME280;11050;52.222;20.916;2023-12-22T07:01:27;96623.38;;;5.35;69.54
21779;BME280;11050;52.222;20.916;2023-12-22T07:03:53;96617.53;;;5.28;70.02
21779;BME280;11050;52.222;20.916;2023-12-22T07:06:22;96616.44;;;5.29;71.11
21779;BME280;11050;52.222;20.916;2023-12-22T07:11:40;96642.50;;;5.22;75.10
21779;BME280;11050;52.222;20.916;2023-12-22T07:14:06;96649.03;;;5.21;77.05
21779;BME280;11050;52.222;20.916;2023-12-22T07:16:33;96678.78;;;5.17;77.00
21779;BME280;11050;52.222;20.916;2023-12-22T07:18:59;96662.63;;;5.21;75.85
21779;BME280;11050;52.222;20.916;2023-12-22T07:21:24;96634.16;;;5.18;77.19
21779;BME280;11050;52.222;20.916;2023-12-22T07:23:50;96646.63;;;5.19;77.60
21779;BME280;11050;52.222;20.916;2023-12-22T07:26:16;96662.59;;;5.12;77.74
21779;BME280;11050;52.222;20.916;2023-12-22T07:28:41;96643.53;;;5.12;77.79
21779;BME280;11050;52.222;20.916;2023-12-22T07:31:07;96653.91;;;5.10;76.21
21779;BME280;11050;52.222;20.916;2023-12-22T07:33:33;96664.16;;;5.13;76.35
21779;BME280;11050;52.222;20.916;2023-12-22T07:35:59;96659.78;;;5.04;77.50
21779;BME280;11050;52.222;20.916;2023-12-22T07:38:24;96655.66;;;5.06;78.01
21779;BME280;11050;52.222;20.916;2023-12-22T07:40:50;96653.22;;;5.05;78.57
21779;BME280;11050;52.222;20.916;2023-12-22T07:43:16;96663.97;;;4.88;79.61
21779;BME280;11050;52.222;20.916;2023-12-22T07:45:42;96675.38;;;4.76;80.44
21779;BME280;11050;52.222;20.916;2023-12-22T07:48:07;96713.88;;;4.56;80.56
21779;BME280;11050;52.222;20.916;2023-12-22T07:50:33;96674.63;;;4.48;81.80
21779;BME280;11050;52.222;20.916;2023-12-22T07:52:59;96686.06;;;4.59;80.50
21779;BME280;11050;52.222;20.916;2023-12-22T07:55:25;96691.81;;;4.57;78.91
21779;BME280;11050;52.222;20.916;2023-12-22T07:57:51;96678.63;;;4.51;80.58
21779;BME280;11050;52.222;20.916;2023-12-22T08:00:17;96688.09;;;4.53;80.50
21779;BME280;11050;52.222;20.916;2023-12-22T08:02:43;96675.31;;;4.54;77.84
21779;BME280;11050;52.222;20.916;2023-12-22T08:05:10;96683.97;;;4.56;77.76
21779;BME280;11050;52.222;20.916;2023-12-22T08:07:36;96681.25;;;4.56;76.79
21779;BME280;11050;52.222;20.916;2023-12-22T08:10:03;96684.25;;;4.54;74.56
21779;BME280;11050;52.222;20.916;2023-12-22T08:12:29;96686.69;;;4.56;74.34
21779;BME280;11050;52.222;20.916;2023-12-22T08:14:57;96683.28;;;4.50;76.29
21779;BME280;11050;52.222;20.916;2023-12-22T08:17:22;96687.28;;;4.53;76.02
21779;BME280;11050;52.222;20.916;2023-12-22T08:19:48;96687.47;;;4.56;77.61
21779;BME280;11050;52.222;20.916;2023-12-22T08:22:15;96698.75;;;4.50;79.74
21779;BME280;11050;52.222;20.916;2023-12-22T08:24:41;96749.09;;;4.47;81.74
21779;BME280;11050;52.222;20.916;2023-12-22T08:27:07;96717.91;;;4.45;83.87
21779;BME280;11050;52.222;20.916;2023-12-22T08:29:33;96758.22;;;4.24;86.76
21779;BME280;11050;52.222;20.916;2023-12-22T08:32:00;96730.16;;;4.29;88.79
21779;BME280;11050;52.222;20.916;2023-12-22T08:34:27;96731.19;;;4.33;88.42
21779;BME280;11050;52.222;20.916;2023-12-22T08:36:52;96719.28;;;4.29;89.31
21779;BME280;11050;52.222;20.916;2023-12-22T08:39:18;96738.00;;;4.30;89.75
21779;BME280;11050;52.222;20.916;2023-12-22T08:41:45;96723.84;;;4.33;89.74
21779;BME280;11050;52.222;20.916;2023-12-22T08:44:11;96738.13;;;4.39;89.88
21779;BME280;11050;52.222;20.916;2023-12-22T08:46:40;96733.88;;;4.33;89.75
21779;BME280;11050;52.222;20.916;2023-12-22T08:49:06;96710.34;;;4.42;90.72
21779;BME280;11050;52.222;20.916;2023-12-22T08:51:33;96713.38;;;4.40;90.99
21779;BME280;11050;52.222;20.916;2023-12-22T08:53:59;96729.56;;;4.45;91.75
21779;BME280;11050;52.222;20.916;2023-12-22T08:56:26;96717.78;;;4.50;90.56
21779;BME280;11050;52.222;20.916;2023-12-22T08:58:53;96725.31;;;4.53;90.61
21779;BME280;11050;52.222;20.916;2023-12-22T09:01:21;96714.06;;;4.59;90.03
21779;BME280;11050;52.222;20.916;2023-12-22T09:03:48;96745.25;;;4.75;89.06
21779;BME280;11050;52.222;20.916;2023-12-22T09:06:24;96739.00;;;4.89;88.72
21779;BME280;11050;52.222;20.916;2023-12-22T09:08:50;96732.31;;;5.08;86.76
21779;BME280;11050;52.222;20.916;2023-12-22T09:11:18;96724.66;;;5.10;85.81
21779;BME280;11050;52.222;20.916;2023-12-22T09:13:44;96733.72;;;5.06;86.11
21779;BME280;11050;52.222;20.916;2023-12-22T09:16:10;96706.47;;;4.97;86.44
21779;BME280;11050;52.222;20.916;2023-12-22T09:18:36;96713.41;;;4.90;86.06
21779;BME280;11050;52.222;20.916;2023-12-22T09:21:02;96696.25;;;5.03;84.49
21779;BME280;11050;52.222;20.916;2023-12-22T09:23:29;96695.03;;;5.09;84.25
21779;BME280;11050;52.222;20.916;2023-12-22T09:25:55;96740.38;;;5.13;83.34
21779;BME280;11050;52.222;20.916;2023-12-22T09:28:20;96685.84;;;5.18;82.01
21779;BME280;11050;52.222;20.916;2023-12-22T09:30:46;96698.63;;;5.18;81.62
21779;BME280;11050;52.222;20.916;2023-12-22T09:33:13;96698.97;;;5.38;80.90
21779;BME280;11050;52.222;20.916;2023-12-22T09:35:39;96675.69;;;5.54;78.88
21779;BME280;11050;52.222;20.916;2023-12-22T09:38:09;96669.41;;;5.67;77.53
21779;BME280;11050;52.222;20.916;2023-12-22T09:40:35;96670.75;;;5.78;77.07
21779;BME280;11050;52.222;20.916;2023-12-22T09:43:06;96673.75;;;5.77;76.50
21779;BME280;11050;52.222;20.916;2023-12-22T09:45:33;96689.88;;;5.87;75.78
21779;BME280;11050;52.222;20.916;2023-12-22T09:48:01;96660.47;;;5.98;74.31
21779;BME280;11050;52.222;20.916;2023-12-22T09:50:27;96674.94;;;5.85;74.78
21779;BME280;11050;52.222;20.916;2023-12-22T09:52:54;96655.19;;;5.79;74.85
21779;BME280;11050;52.222;20.916;2023-12-22T09:55:22;96663.50;;;5.74;74.65
21779;BME280;11050;52.222;20.916;2023-12-22T09:57:49;96648.94;;;5.78;74.10
21779;BME280;11050;52.222;20.916;2023-12-22T10:00:17;96634.00;;;5.67;75.69
21779;BME280;11050;52.222;20.916;2023-12-22T10:02:43;96630.13;;;5.68;75.98
21779;BME280;11050;52.222;20.916;2023-12-22T10:05:11;96635.31;;;5.48;76.61
21779;BME280;11050;52.222;20.916;2023-12-22T10:07:41;96653.44;;;5.52;77.77
21779;BME280;11050;52.222;20.916;2023-12-22T10:10:07;96728.19;;;3.56;100.00
21779;BME280;11050;52.222;20.916;2023-12-22T10:12:36;96709.13;;;2.92;100.00
21779;BME280;11050;52.222;20.916;2023-12-22T10:15:05;96796.38;;;2.52;100.00
21779;BME280;11050;52.222;20.916;2023-12-22T10:17:31;96724.94;;;2.19;100.00
21779;BME280;11050;52.222;20.916;2023-12-22T10:19:57;96715.84;;;1.86;100.00
21779;BME280;11050;52.222;20.916;2023-12-22T10:22:23;96738.25;;;1.63;100.00
21779;BME280;11050;52.222;20.916;2023-12-22T10:24:49;96731.91;;;1.44;100.00
21779;BME280;11050;52.222;20.916;2023-12-22T10:27:19;96715.97;;;1.43;100.00
21779;BME280;11050;52.222;20.916;2023-12-22T10:29:49;96730.31;;;1.43;100.00
21779;BME280;11050;52.222;20.916;2023-12-22T10:32:16;96716.81;;;1.38;100.00
21779;BME280;11050;52.222;20.916;2023-12-22T10:34:43;96717.66;;;1.34;100.00
21779;BME280;11050;52.222;20.916;2023-12-22T10:37:09;96706.09;;;1.23;100.00
21779;BME280;11050;52.222;20.916;2023-12-22T10:39:36;96721.44;;;1.33;100.00
21779;BME280;11050;52.222;20.916;2023-12-22T10:42:03;96739.84;;;1.31;100.00
21779;BME280;11050;52.222;20.916;2023-12-22T10:44:29;96730.38;;;1.33;100.00
21779;BME280;11050;52.222;20.916;2023-12-22T10:46:56;96722.81;;;1.30;100.00
21779;BME280;11050;52.222;20.916;2023-12-22T10:49:23;96707.31;;;1.41;100.00
21779;BME280;11050;52.222;20.916;2023-12-22T10:51:50;96742.00;;;1.34;100.00
21779;BME280;11050;52.222;20.916;2023-12-22T10:54:17;96693.06;;;1.30;100.00
21779;BME280;11050;52.222;20.916;2023-12-22T10:56:43;96680.97;;;1.51;100.00
21779;BME280;11050;52.222;20.916;2023-12-22T10:59:09;96678.78;;;1.58;100.00
21779;BME280;11050;52.222;20.916;2023-12-22T11:01:38;96661.44;;;1.59;100.00
21779;BME280;11050;52.222;20.916;2023-12-22T11:04:11;96650.47;;;1.74;100.00
21779;BME280;11050;52.222;20.916;2023-12-22T11:06:42;96658.94;;;1.91;100.00
21779;BME280;11050;52.222;20.916;2023-12-22T11:09:10;96658.34;;;1.94;100.00
21779;BME280;11050;52.222;20.916;2023-12-22T11:11:40;96646.03;;;2.07;100.00
21779;BME280;11050;52.222;20.916;2023-12-22T11:14:07;96649.81;;;2.06;100.00
21779;BME280;11050;52.222;20.916;2023-12-22T11:16:35;96625.28;;;2.40;100.00
21779;BME280;11050;52.222;20.916;2023-12-22T11:19:03;96619.81;;;2.63;100.00
21779;BME280;11050;52.222;20.916;2023-12-22T11:21:30;96620.22;;;2.89;100.00
21779;BME280;11050;52.222;20.916;2023-12-22T11:23:57;96630.78;;;2.90;100.00
21779;BME280;11050;52.222;20.916;2023-12-22T11:26:24;96625.50;;;2.99;100.00
21779;BME280;11050;52.222;20.916;2023-12-22T11:28:52;96624.34;;;3.37;100.00
21779;BME280;11050;52.222;20.916;2023-12-22T11:31:18;96613.03;;;3.90;100.00
21779;BME280;11050;52.222;20.916;2023-12-22T11:33:49;96619.63;;;3.43;100.00
21779;BME280;11050;52.222;20.916;2023-12-22T11:36:18;96643.91;;;3.80;100.00
21779;BME280;11050;52.222;20.916;2023-12-22T11:38:45;96623.00;;;4.08;100.00
21779;BME280;11050;52.222;20.916;2023-12-22T11:41:19;96612.31;;;4.25;100.00
21779;BME280;11050;52.222;20.916;2023-12-22T11:43:48;96612.03;;;3.99;100.00
21779;BME280;11050;52.222;20.916;2023-12-22T11:46:17;96621.91;;;3.95;100.00
21779;BME280;11050;52.222;20.916;2023-12-22T11:48:48;96620.97;;;3.72;100.00
21779;BME280;11050;52.222;20.916;2023-12-22T11:51:16;96616.50;;;3.49;100.00
21779;BME280;11050;52.222;20.916;2023-12-22T11:53:43;96617.53;;;3.21;100.00
21779;BME280;11050;52.222;20.916;2023-12-22T11:56:10;96618.09;;;3.05;100.00
21779;BME280;11050;52.222;20.916;2023-12-22T11:58:47;96612.63;;;3.23;100.00
21779;BME280;11050;52.222;20.916;2023-12-22T12:01:26;96612.31;;;3.70;100.00
21779;BME280;11050;52.222;20.916;2023-12-22T12:04:03;96605.56;;;3.54;100.00
21779;BME280;11050;52.222;20.916;2023-12-22T12:09:00;96584.34;;;3.56;100.00
21779;BME280;11050;52.222;20.916;2023-12-22T12:14:37;96585.31;;;3.20;100.00
21779;BME280;11050;52.222;20.916;2023-12-22T12:17:08;96585.09;;;3.16;100.00
21779;BME280;11050;52.222;20.916;2023-12-22T12:19:38;96600.94;;;3.09;100.00
21779;BME280;11050;52.222;20.916;2023-12-22T12:22:05;96610.44;;;3.25;100.00
21779;BME280;11050;52.222;20.916;2023-12-22T12:24:31;96589.50;;;3.12;100.00
21779;BME280;11050;52.222;20.916;2023-12-22T12:26:57;96578.81;;;3.02;100.00
21779;BME280;11050;52.222;20.916;2023-12-22T12:29:23;96591.84;;;3.00;100.00
21779;BME280;11050;52.222;20.916;2023-12-22T12:31:49;96591.59;;;3.02;100.00
21779;BME280;11050;52.222;20.916;2023-12-22T12:34:14;96573.63;;;2.87;100.00
21779;BME280;11050;52.222;20.916;2023-12-22T12:36:45;96571.63;;;2.79;100.00
21779;BME280;11050;52.222;20.916;2023-12-22T12:39:15;96580.47;;;2.84;100.00
21779;BME280;11050;52.222;20.916;2023-12-22T12:41:43;96579.50;;;2.75;100.00
21779;BME280;11050;52.222;20.916;2023-12-22T12:44:12;96586.84;;;2.75;100.00
21779;BME280;11050;52.222;20.916;2023-12-22T12:46:39;96607.13;;;2.77;100.00
21779;BME280;11050;52.222;20.916;2023-12-22T12:49:11;96589.13;;;2.68;100.00
21779;BME280;11050;52.222;20.916;2023-12-22T12:51:49;96583.69;;;2.68;100.00
21779;BME280;11050;52.222;20.916;2023-12-22T12:54:15;96580.56;;;2.61;100.00
21779;BME280;11050;52.222;20.916;2023-12-22T12:56:46;96586.06;;;2.56;100.00
21779;BME280;11050;52.222;20.916;2023-12-22T12:59:17;96584.09;;;2.61;100.00
21779;BME280;11050;52.222;20.916;2023-12-22T13:01:47;96586.38;;;2.54;100.00
21779;BME280;11050;52.222;20.916;2023-12-22T13:04:14;96578.47;;;2.39;100.00
21779;BME280;11050;52.222;20.916;2023-12-22T13:06:49;96573.81;;;2.40;100.00
21779;BME280;11050;52.222;20.916;2023-12-22T13:09:17;96582.84;;;2.35;100.00